Time;durP1;ratioP1;P1;durP2;ratioP2;P2;SDS_P1;SDS_P2;PMS_P1;PMS_P2;Temp;Humidity;BMP_temperature;BMP_pressure;BME280_temperature;BME280_humidity;BME280_pressure;Samples;Min_cycle;Max_cycle;Signal;HPM_P1;HPM_P2
2022/01/09 00:01:12;;;;;;;1.00;0.80;;;3.30;99.90;;;;;;4939004;28;20020;-82
2022/01/09 00:03:39;;;;;;;1.75;0.98;;;3.30;99.90;;;;;;4958905;28;20034;-82
2022/01/09 00:06:04;;;;;;;1.02;0.70;;;3.30;99.90;;;;;;4945625;28;20037;-82
2022/01/09 00:08:30;;;;;;;0.75;0.70;;;3.30;99.90;;;;;;4919583;28;20030;-81
2022/01/09 00:10:55;;;;;;;0.65;0.40;;;3.30;99.90;;;;;;4943015;28;20031;-82
2022/01/09 00:13:21;;;;;;;1.08;0.80;;;3.30;99.90;;;;;;4927141;28;20039;-81
2022/01/09 00:15:46;;;;;;;0.70;0.57;;;3.30;99.90;;;;;;4945488;28;20078;-82
2022/01/09 00:18:12;;;;;;;0.77;0.55;;;3.30;99.90;;;;;;4942182;28;20039;-81
2022/01/09 00:20:38;;;;;;;1.00;0.82;;;3.30;99.90;;;;;;4932302;28;20031;-81
2022/01/09 00:23:03;;;;;;;1.50;0.82;;;3.30;99.90;;;;;;4927200;28;20031;-82
2022/01/09 00:25:30;;;;;;;0.95;0.60;;;3.30;99.90;;;;;;4942927;28;20030;-82
2022/01/09 00:27:55;;;;;;;1.30;0.70;;;3.30;99.90;;;;;;4958217;28;20035;-82
2022/01/09 00:30:22;;;;;;;0.80;0.52;;;3.30;99.90;;;;;;4927318;28;20431;-81
2022/01/09 00:32:48;;;;;;;2.88;0.80;;;3.30;99.90;;;;;;4927583;28;20114;-82
2022/01/09 00:35:14;;;;;;;1.00;0.60;;;3.30;99.90;;;;;;4940513;28;20126;-81
2022/01/09 00:37:39;;;;;;;0.77;0.77;;;3.30;99.90;;;;;;4928620;28;20027;-82
2022/01/09 00:40:06;;;;;;;3.47;0.90;;;3.30;99.90;;;;;;4939457;28;20031;-82
2022/01/09 00:42:32;;;;;;;1.48;0.95;;;3.30;99.90;;;;;;4940099;28;20042;-82
2022/01/09 00:44:57;;;;;;;2.08;0.88;;;3.30;99.90;;;;;;4916517;28;20050;-82
2022/01/09 00:47:23;;;;;;;1.20;1.02;;;3.40;99.90;;;;;;4928874;28;20043;-81
2022/01/09 00:49:48;;;;;;;1.85;0.55;;;3.30;99.90;;;;;;4942375;28;20042;-82
2022/01/09 00:52:14;;;;;;;0.80;0.80;;;3.30;99.90;;;;;;4930601;28;20035;-80
2022/01/09 00:54:39;;;;;;;0.70;0.50;;;3.30;99.90;;;;;;4945707;28;20038;-79
2022/01/09 00:57:05;;;;;;;1.63;0.60;;;3.40;99.90;;;;;;4942003;28;20023;-83
2022/01/09 00:59:31;;;;;;;0.70;0.70;;;3.30;99.90;;;;;;4935143;28;20035;-82
2022/01/09 01:01:56;;;;;;;1.42;0.50;;;3.30;99.90;;;;;;4910736;28;20617;-81
2022/01/09 01:04:22;;;;;;;0.70;0.55;;;3.30;99.90;;;;;;4929118;28;20046;-81
2022/01/09 01:06:49;;;;;;;0.60;0.60;;;3.40;99.90;;;;;;4930265;28;20114;-81
2022/01/09 01:09:15;;;;;;;0.90;0.80;;;3.40;99.90;;;;;;4926893;28;20042;-81
2022/01/09 01:11:41;;;;;;;1.00;0.63;;;3.40;99.90;;;;;;4939847;28;20047;-81
2022/01/09 01:14:06;;;;;;;0.52;0.43;;;3.40;99.90;;;;;;4930510;28;20557;-81
2022/01/09 01:16:32;;;;;;;0.88;0.50;;;3.40;99.90;;;;;;4942783;28;20113;-81
2022/01/09 01:18:59;;;;;;;0.98;0.80;;;3.40;99.90;;;;;;4929276;28;20185;-81
2022/01/09 01:21:24;;;;;;;0.60;0.57;;;3.40;99.90;;;;;;4926158;28;20035;-82
2022/01/09 01:23:51;;;;;;;0.77;0.68;;;3.40;99.90;;;;;;4943605;28;20031;-81
2022/01/09 01:26:16;;;;;;;2.33;0.88;;;3.40;99.90;;;;;;4929930;28;20123;-82
2022/01/09 01:28:42;;;;;;;0.88;0.63;;;3.40;99.90;;;;;;4930651;28;20027;-81
2022/01/09 01:31:07;;;;;;;0.60;0.60;;;3.40;99.90;;;;;;4943729;28;20030;-81
2022/01/09 01:33:34;;;;;;;0.70;0.60;;;3.40;99.90;;;;;;4933754;28;20027;-81
2022/01/09 01:36:01;;;;;;;0.80;0.70;;;3.40;99.90;;;;;;4927745;28;20447;-81
2022/01/09 01:38:27;;;;;;;0.55;0.52;;;3.40;99.90;;;;;;4928540;28;20736;-81
2022/01/09 01:40:52;;;;;;;0.52;0.40;;;3.50;99.90;;;;;;4942199;28;20064;-81
2022/01/09 01:43:18;;;;;;;0.90;0.50;;;3.50;99.90;;;;;;4923117;28;20035;-81
2022/01/09 01:45:43;;;;;;;0.60;0.60;;;3.50;99.90;;;;;;4940271;28;20041;-81
2022/01/09 01:48:09;;;;;;;0.55;0.55;;;3.50;99.90;;;;;;4955674;28;20135;-82
2022/01/09 01:50:41;;;;;;;0.77;0.50;;;3.50;99.90;;;;;;4925824;28;20035;-81
2022/01/09 01:53:11;;;;;;;0.40;0.32;;;3.50;99.90;;;;;;4957472;28;20031;-80
2022/01/09 01:55:39;;;;;;;0.45;0.45;;;3.50;99.90;;;;;;4924030;28;20043;-81
2022/01/09 01:58:05;;;;;;;0.30;0.20;;;3.50;99.90;;;;;;4929578;28;20039;-81
2022/01/09 02:00:31;;;;;;;0.60;0.50;;;3.50;99.90;;;;;;4925749;28;20042;-81
2022/01/09 02:02:56;;;;;;;0.43;0.40;;;3.50;99.90;;;;;;4942366;28;20034;-81
2022/01/09 02:05:22;;;;;;;0.57;0.30;;;3.50;99.90;;;;;;4942438;28;20050;-81
2022/01/09 02:07:50;;;;;;;2.30;0.70;;;3.50;99.90;;;;;;4941097;28;20113;-81
2022/01/09 02:10:15;;;;;;;0.57;0.30;;;3.60;99.90;;;;;;4926161;28;20058;-81
2022/01/09 02:12:41;;;;;;;0.30;0.30;;;3.60;99.90;;;;;;4937226;28;20079;-81
2022/01/09 02:15:35;;;;;;;1.48;0.50;;;3.60;99.90;;;;;;4925465;28;20034;-81
2022/01/09 02:18:05;;;;;;;0.68;0.50;;;3.60;99.90;;;;;;4929815;28;20373;-81
2022/01/09 02:20:31;;;;;;;1.08;0.50;;;3.60;99.90;;;;;;4925020;28;20035;-81
2022/01/09 02:22:57;;;;;;;0.45;0.35;;;3.60;99.90;;;;;;4940835;28;20039;-81
2022/01/09 02:25:22;;;;;;;0.47;0.47;;;3.60;99.90;;;;;;4927313;28;20577;-81
2022/01/09 02:27:49;;;;;;;0.77;0.65;;;3.70;99.90;;;;;;4938834;28;20513;-81
2022/01/09 02:30:14;;;;;;;0.77;0.60;;;3.70;99.90;;;;;;4926455;28;20058;-80
2022/01/09 02:32:43;;;;;;;0.52;0.40;;;3.70;99.90;;;;;;4929478;28;20122;-80
2022/01/09 02:35:08;;;;;;;0.75;0.65;;;3.70;99.90;;;;;;4939612;28;20035;-81
2022/01/09 02:37:34;;;;;;;0.32;0.30;;;3.60;99.90;;;;;;4944270;28;20035;-81
2022/01/09 02:39:59;;;;;;;0.40;0.40;;;3.70;99.90;;;;;;4944037;28;20372;-81
2022/01/09 02:42:28;;;;;;;2.78;0.80;;;3.70;99.90;;;;;;4937615;28;20035;-81
2022/01/09 02:44:55;;;;;;;1.40;0.75;;;3.70;99.90;;;;;;4936204;28;20049;-80
2022/01/09 02:47:21;;;;;;;0.63;0.63;;;3.70;99.90;;;;;;4929797;28;20423;-81
2022/01/09 02:49:50;;;;;;;1.05;0.85;;;3.70;99.90;;;;;;4940171;28;20031;-81
2022/01/09 02:52:52;;;;;;;4.05;1.60;;;3.70;99.90;;;;;;4933553;28;20122;-80
2022/01/09 02:55:12;;;;;;;4.03;1.70;;;3.70;99.90;;;;;;4944946;28;20506;-81
2022/01/09 02:57:41;;;;;;;2.17;1.73;;;3.70;99.90;;;;;;4931583;28;20060;-81
2022/01/09 03:00:12;;;;;;;2.03;1.67;;;3.70;99.90;;;;;;4930134;28;20031;-81
2022/01/09 03:02:37;;;;;;;3.53;2.63;;;3.70;99.90;;;;;;4930085;28;20456;-80
2022/01/09 03:05:03;;;;;;;5.15;2.80;;;3.70;99.90;;;;;;4930015;28;20070;-81
2022/01/09 03:07:29;;;;;;;3.22;2.47;;;3.70;99.90;;;;;;4931483;28;20055;-81
2022/01/09 03:09:55;;;;;;;6.43;3.72;;;3.70;99.90;;;;;;4933296;28;20106;-81
2022/01/09 03:12:22;;;;;;;2.95;2.50;;;3.80;99.90;;;;;;4930324;28;20402;-80
2022/01/09 03:14:47;;;;;;;4.80;2.42;;;3.80;99.90;;;;;;4934968;28;20051;-81
2022/01/09 03:17:13;;;;;;;16.10;6.05;;;3.80;99.90;;;;;;4945698;28;20122;-80
2022/01/09 03:19:38;;;;;;;13.98;4.10;;;3.80;99.90;;;;;;4938578;28;20089;-80
2022/01/09 03:22:04;;;;;;;5.72;3.88;;;3.80;99.90;;;;;;4926849;28;20055;-80
2022/01/09 03:24:29;;;;;;;10.38;4.07;;;3.90;99.90;;;;;;4912339;28;20514;-81
2022/01/09 03:26:55;;;;;;;7.32;2.92;;;3.80;99.90;;;;;;4933000;28;20031;-79
2022/01/09 03:29:21;;;;;;;3.97;2.28;;;3.90;99.90;;;;;;4942222;28;20039;-80
2022/01/09 03:31:46;;;;;;;1.90;1.40;;;3.90;99.90;;;;;;4941367;28;20026;-80
2022/01/09 03:34:12;;;;;;;4.53;2.10;;;3.90;99.90;;;;;;4932688;28;20031;-80
2022/01/09 03:36:37;;;;;;;2.85;2.10;;;4.00;99.90;;;;;;4929762;28;20070;-80
2022/01/09 03:39:03;;;;;;;4.40;2.15;;;4.00;99.90;;;;;;4933206;28;20296;-80
2022/01/09 03:41:28;;;;;;;13.02;2.33;;;4.00;99.90;;;;;;4931022;28;20059;-81
2022/01/09 03:43:54;;;;;;;6.32;1.75;;;4.00;99.90;;;;;;4946579;28;20902;-80
2022/01/09 03:46:19;;;;;;;4.25;1.40;;;4.00;99.90;;;;;;4938309;28;20035;-80
2022/01/09 03:48:45;;;;;;;5.32;1.30;;;4.00;99.90;;;;;;4943296;28;20059;-80
2022/01/09 03:51:11;;;;;;;8.82;1.05;;;4.00;99.90;;;;;;4944744;28;20109;-81
2022/01/09 03:53:37;;;;;;;3.53;1.25;;;4.00;99.90;;;;;;4943149;28;20047;-80
2022/01/09 03:56:03;;;;;;;7.95;2.10;;;4.00;99.90;;;;;;4935269;28;20435;-80
2022/01/09 03:58:28;;;;;;;5.78;1.25;;;4.00;99.90;;;;;;4928644;28;20035;-83
2022/01/09 04:00:54;;;;;;;3.55;1.02;;;4.00;99.90;;;;;;4925861;28;20204;-84
2022/01/09 04:03:19;;;;;;;3.17;1.40;;;4.00;99.90;;;;;;4930159;28;20031;-85
2022/01/09 04:05:45;;;;;;;10.30;1.30;;;4.00;99.90;;;;;;4931221;28;20043;-84
2022/01/09 04:08:11;;;;;;;6.43;1.08;;;4.00;99.90;;;;;;4931825;28;20043;-84
2022/01/09 04:10:41;;;;;;;9.48;1.40;;;4.00;99.90;;;;;;4943618;28;20036;-85
2022/01/09 04:13:07;;;;;;;4.35;1.02;;;4.00;99.90;;;;;;4925105;28;20027;-84
2022/01/09 04:15:33;;;;;;;4.82;1.00;;;4.00;99.90;;;;;;4942112;28;20038;-85
2022/01/09 04:17:59;;;;;;;4.90;1.00;;;4.00;99.90;;;;;;4930243;28;20039;-85
2022/01/09 04:20:26;;;;;;;1.42;0.47;;;4.00;99.90;;;;;;4943367;28;20035;-85
2022/01/09 04:22:52;;;;;;;3.47;0.85;;;4.00;99.90;;;;;;4943922;28;20034;-85
2022/01/09 04:25:18;;;;;;;9.63;1.77;;;4.00;99.90;;;;;;4942270;28;20038;-84
2022/01/09 04:27:44;;;;;;;3.45;0.70;;;4.00;99.90;;;;;;4940298;28;20410;-85
2022/01/09 04:30:10;;;;;;;11.30;1.60;;;4.00;99.90;;;;;;4939910;28;20460;-83
2022/01/09 04:32:35;;;;;;;8.38;2.17;;;4.10;99.90;;;;;;4944319;28;20073;-85
2022/01/09 04:35:01;;;;;;;13.32;2.72;;;4.00;99.90;;;;;;4945558;28;20030;-85
2022/01/09 04:37:30;;;;;;;23.08;5.50;;;4.10;99.90;;;;;;4953200;28;20042;-85
2022/01/09 04:39:56;;;;;;;23.00;4.38;;;4.10;99.90;;;;;;4925776;28;20031;-84
2022/01/09 04:42:27;;;;;;;24.05;4.32;;;4.20;99.90;;;;;;4925821;28;20038;-84
2022/01/09 04:44:53;;;;;;;41.47;4.85;;;4.20;99.90;;;;;;4944001;28;20066;-85
2022/01/09 04:47:19;;;;;;;27.88;4.93;;;4.20;99.90;;;;;;4930999;28;20154;-84
2022/01/09 04:49:47;;;;;;;28.38;5.18;;;4.20;99.90;;;;;;4930133;28;20038;-85
2022/01/09 04:52:17;;;;;;;28.63;6.85;;;4.30;99.90;;;;;;4940359;28;20399;-84
2022/01/09 04:54:42;;;;;;;31.20;6.72;;;4.20;99.90;;;;;;4943695;28;20043;-83
2022/01/09 04:57:08;;;;;;;29.35;6.95;;;4.30;99.90;;;;;;4927980;28;20560;-84
2022/01/09 04:59:33;;;;;;;32.05;6.60;;;4.30;99.90;;;;;;4943948;28;20050;-84
2022/01/09 05:01:59;;;;;;;29.00;5.55;;;4.40;99.90;;;;;;4928164;28;20037;-85
2022/01/09 05:04:24;;;;;;;24.95;5.25;;;4.40;99.90;;;;;;4937703;28;20053;-85
2022/01/09 05:06:50;;;;;;;31.15;5.43;;;4.40;99.90;;;;;;4927212;28;20039;-84
2022/01/09 05:09:15;;;;;;;56.08;9.77;;;4.40;99.90;;;;;;4942039;28;20037;-83
2022/01/09 05:11:41;;;;;;;36.67;6.43;;;4.40;99.90;;;;;;4943473;28;20482;-83
2022/01/09 05:14:07;;;;;;;26.55;4.80;;;4.50;99.90;;;;;;4941918;28;20089;-84
2022/01/09 05:16:32;;;;;;;39.22;5.75;;;4.50;99.90;;;;;;4940459;28;20039;-84
2022/01/09 05:19:03;;;;;;;27.52;6.03;;;4.50;99.90;;;;;;4943677;28;20030;-84
2022/01/09 05:21:29;;;;;;;18.63;2.67;;;4.50;99.90;;;;;;4940314;28;20443;-84
2022/01/09 05:23:54;;;;;;;29.88;5.63;;;4.50;99.90;;;;;;4943630;28;20035;-83
2022/01/09 05:26:20;;;;;;;43.33;8.10;;;4.50;99.90;;;;;;4938361;28;20042;-84
2022/01/09 05:28:46;;;;;;;28.80;6.25;;;4.60;99.90;;;;;;4942319;28;20027;-84
2022/01/09 05:31:11;;;;;;;24.50;5.78;;;4.50;99.90;;;;;;4923456;28;20033;-82
2022/01/09 05:33:37;;;;;;;25.85;5.43;;;4.50;99.90;;;;;;4937410;28;20042;-84
2022/01/09 05:36:03;;;;;;;23.33;5.35;;;4.60;99.90;;;;;;4926685;28;20030;-84
2022/01/09 05:38:28;;;;;;;30.30;5.50;;;4.60;99.90;;;;;;4939040;28;20034;-85
2022/01/09 05:40:54;;;;;;;22.20;5.10;;;4.60;99.90;;;;;;4952590;28;20074;-83
2022/01/09 05:43:19;;;;;;;22.13;5.05;;;4.60;99.90;;;;;;4937767;28;20122;-84
2022/01/09 05:45:45;;;;;;;31.52;5.63;;;4.60;99.90;;;;;;4917097;28;20107;-84
2022/01/09 05:48:11;;;;;;;31.67;5.53;;;4.60;99.90;;;;;;4930808;28;20034;-83
2022/01/09 05:50:36;;;;;;;15.20;4.47;;;4.60;99.90;;;;;;4940541;28;20036;-83
2022/01/09 05:53:02;;;;;;;11.93;3.20;;;4.60;99.90;;;;;;4927213;28;20087;-84
2022/01/09 05:55:28;;;;;;;18.95;2.78;;;4.60;99.90;;;;;;4928202;28;20035;-84
2022/01/09 05:57:53;;;;;;;34.63;4.70;;;4.60;99.90;;;;;;4946766;28;20062;-83
2022/01/09 06:00:19;;;;;;;26.50;4.20;;;4.60;99.90;;;;;;4930822;28;20847;-83
2022/01/09 06:02:44;;;;;;;20.70;3.90;;;4.50;99.90;;;;;;4927431;28;20051;-83
2022/01/09 06:05:10;;;;;;;24.10;5.38;;;4.60;99.90;;;;;;4945212;28;20444;-83
2022/01/09 06:07:39;;;;;;;36.85;4.90;;;4.60;99.90;;;;;;4925039;28;20600;-83
2022/01/09 06:10:05;;;;;;;26.63;5.20;;;4.60;99.90;;;;;;4943174;28;20147;-83
2022/01/09 06:12:31;;;;;;;24.52;4.75;;;4.60;99.90;;;;;;4934747;28;20122;-83
2022/01/09 06:14:56;;;;;;;34.35;4.32;;;4.50;99.90;;;;;;4937554;28;20121;-83
2022/01/09 06:17:22;;;;;;;18.73;3.55;;;4.50;99.90;;;;;;4963147;28;20027;-83
2022/01/09 06:19:47;;;;;;;26.45;4.60;;;4.50;99.90;;;;;;4948085;28;20086;-84
2022/01/09 06:22:18;;;;;;;17.33;4.28;;;4.50;99.90;;;;;;4945110;28;20066;-83
2022/01/09 06:24:46;;;;;;;36.33;6.57;;;4.50;99.90;;;;;;4948383;28;20344;-83
2022/01/09 06:27:12;;;;;;;19.65;4.53;;;4.60;99.90;;;;;;4919489;28;20077;-83
2022/01/09 06:29:38;;;;;;;10.02;2.38;;;4.50;99.90;;;;;;4934263;28;20038;-83
2022/01/09 06:32:04;;;;;;;22.13;3.60;;;4.50;99.90;;;;;;4937388;28;20043;-83
2022/01/09 06:34:30;;;;;;;19.63;4.10;;;4.50;99.90;;;;;;4932230;28;20567;-83
2022/01/09 06:36:55;;;;;;;19.25;4.30;;;4.50;99.90;;;;;;4944848;28;20033;-83
2022/01/09 06:39:21;;;;;;;26.13;4.80;;;4.50;99.90;;;;;;4932504;28;20037;-83
2022/01/09 06:41:47;;;;;;;10.55;2.25;;;4.40;99.90;;;;;;4934389;28;20027;-83
2022/01/09 06:44:12;;;;;;;20.92;3.92;;;4.50;99.90;;;;;;4934300;28;20041;-83
2022/01/09 06:46:38;;;;;;;20.40;3.63;;;4.40;99.90;;;;;;4946184;28;20083;-83
2022/01/09 06:49:03;;;;;;;27.27;4.07;;;4.40;99.90;;;;;;4942577;28;20034;-83
2022/01/09 06:51:29;;;;;;;7.65;2.10;;;4.40;99.90;;;;;;4948872;28;20431;-83
2022/01/09 06:53:54;;;;;;;16.00;2.85;;;4.40;99.90;;;;;;4961737;28;20510;-83
2022/01/09 06:56:20;;;;;;;21.52;3.10;;;4.40;99.90;;;;;;4945291;28;20431;-83
2022/01/09 06:58:45;;;;;;;18.65;2.90;;;4.40;99.90;;;;;;4943515;28;20031;-83
2022/01/09 07:01:11;;;;;;;22.30;3.58;;;4.40;99.90;;;;;;4930206;28;20392;-83
2022/01/09 07:03:36;;;;;;;13.77;2.88;;;4.40;99.90;;;;;;4934343;28;20028;-83
2022/01/09 07:06:02;;;;;;;7.38;2.50;;;4.40;99.90;;;;;;4931044;28;20041;-83
2022/01/09 07:08:29;;;;;;;18.08;2.63;;;4.40;99.90;;;;;;4941236;28;20035;-83
2022/01/09 07:10:54;;;;;;;7.70;2.60;;;4.40;99.90;;;;;;4918011;28;20055;-83
2022/01/09 07:13:21;;;;;;;13.38;3.55;;;4.40;99.90;;;;;;4945363;28;20058;-83
2022/01/09 07:15:47;;;;;;;15.15;2.67;;;4.40;99.90;;;;;;4946366;28;20074;-82
2022/01/09 07:18:12;;;;;;;17.38;3.22;;;4.40;99.90;;;;;;4943592;28;20063;-83
2022/01/09 07:20:38;;;;;;;7.20;1.98;;;4.40;99.90;;;;;;4944746;28;20114;-83
2022/01/09 07:23:04;;;;;;;10.35;2.92;;;4.30;99.90;;;;;;4930651;28;20035;-83
2022/01/09 07:25:30;;;;;;;8.55;2.28;;;4.40;99.90;;;;;;4944206;28;20038;-83
2022/01/09 07:27:58;;;;;;;20.92;3.08;;;4.30;99.90;;;;;;4942977;28;20387;-83
2022/01/09 07:30:26;;;;;;;7.93;1.52;;;4.30;99.90;;;;;;4944699;28;20039;-83
2022/01/09 07:32:52;;;;;;;18.55;2.70;;;4.40;99.90;;;;;;4956737;28;20035;-83
2022/01/09 07:35:17;;;;;;;16.30;2.60;;;4.30;99.90;;;;;;4940648;28;20041;-83
2022/01/09 07:37:43;;;;;;;10.18;2.50;;;4.30;99.90;;;;;;4948584;28;20035;-83
2022/01/09 07:40:09;;;;;;;9.20;1.98;;;4.30;99.90;;;;;;4930885;28;20110;-83
2022/01/09 07:42:34;;;;;;;5.35;1.35;;;4.30;99.90;;;;;;4953498;28;20053;-83
2022/01/09 07:45:00;;;;;;;17.55;3.00;;;4.30;99.90;;;;;;4959825;28;20035;-83
2022/01/09 07:47:26;;;;;;;12.77;1.98;;;4.30;99.90;;;;;;4930308;28;20515;-83
2022/01/09 07:49:51;;;;;;;10.05;2.80;;;4.30;99.90;;;;;;4944915;28;20035;-83
2022/01/09 07:52:17;;;;;;;13.98;2.88;;;4.30;99.90;;;;;;4937095;28;20127;-82
2022/01/09 07:54:43;;;;;;;13.43;3.67;;;4.30;99.90;;;;;;4954338;28;20042;-83
2022/01/09 07:57:08;;;;;;;13.75;2.53;;;4.20;99.90;;;;;;4947576;28;20166;-83
2022/01/09 07:59:34;;;;;;;7.93;2.17;;;4.20;99.90;;;;;;4924639;28;20035;-83
2022/01/09 08:01:59;;;;;;;6.90;1.23;;;4.20;99.90;;;;;;4932931;28;20407;-83
2022/01/09 08:04:25;;;;;;;20.70;3.70;;;4.20;99.90;;;;;;4931754;28;20042;-83
2022/01/09 08:06:50;;;;;;;11.00;1.98;;;4.20;99.90;;;;;;4957309;28;20043;-82
2022/01/09 08:09:16;;;;;;;18.45;3.80;;;4.20;99.90;;;;;;4942800;28;20056;-83
2022/01/09 08:11:41;;;;;;;18.52;2.88;;;4.30;99.90;;;;;;4938952;28;20027;-83
2022/01/09 08:14:07;;;;;;;9.93;1.95;;;4.30;99.90;;;;;;4956761;28;20517;-83
2022/01/09 08:16:33;;;;;;;6.47;1.88;;;4.30;99.90;;;;;;4928794;28;20114;-82
2022/01/09 08:18:58;;;;;;;17.42;2.72;;;4.20;99.90;;;;;;4939084;28;20081;-83
2022/01/09 08:21:24;;;;;;;14.63;3.28;;;4.30;99.90;;;;;;4931224;28;20543;-83
2022/01/09 08:23:50;;;;;;;17.15;2.55;;;4.30;99.90;;;;;;4938502;28;20102;-82
2022/01/09 08:26:16;;;;;;;13.77;2.78;;;4.30;99.90;;;;;;4930601;28;20050;-83
2022/01/09 08:28:44;;;;;;;9.88;2.00;;;4.30;99.90;;;;;;4945718;28;20035;-83
2022/01/09 08:31:10;;;;;;;11.98;2.63;;;4.30;99.90;;;;;;4925489;28;20043;-83
2022/01/09 08:33:36;;;;;;;14.82;2.67;;;4.30;99.90;;;;;;4941063;28;20788;-83
2022/01/09 08:36:01;;;;;;;17.33;3.25;;;4.30;99.90;;;;;;4931711;28;20073;-83
2022/01/09 08:38:27;;;;;;;14.38;2.65;;;4.30;99.90;;;;;;4940439;28;20066;-83
2022/01/09 08:40:52;;;;;;;23.05;3.20;;;4.30;99.90;;;;;;4931479;28;20054;-83
2022/01/09 08:43:18;;;;;;;13.90;2.67;;;4.30;99.90;;;;;;4944203;28;20121;-83
2022/01/09 08:45:44;;;;;;;22.48;3.78;;;4.30;99.90;;;;;;4916029;28;20400;-83
2022/01/09 08:48:09;;;;;;;11.05;2.17;;;4.30;99.90;;;;;;4937319;28;20045;-83
2022/01/09 08:50:35;;;;;;;16.65;3.33;;;4.30;99.90;;;;;;4934528;28;20101;-83
2022/01/09 08:53:01;;;;;;;17.08;3.78;;;4.30;99.90;;;;;;4939623;28;20070;-83
2022/01/09 08:55:27;;;;;;;16.27;3.05;;;4.30;99.90;;;;;;4928891;28;20031;-83
2022/01/09 08:57:52;;;;;;;13.73;3.17;;;4.30;99.90;;;;;;4929253;28;20039;-83
2022/01/09 09:00:18;;;;;;;7.38;1.48;;;4.30;99.90;;;;;;4938141;28;20042;-83
2022/01/09 09:02:44;;;;;;;6.65;2.08;;;4.30;99.90;;;;;;4915242;28;20539;-83
2022/01/09 09:05:10;;;;;;;14.00;2.75;;;4.20;99.90;;;;;;4933524;28;20035;-84
2022/01/09 09:07:35;;;;;;;11.65;2.35;;;4.30;99.90;;;;;;4931273;28;20050;-84
2022/01/09 09:10:04;;;;;;;14.57;3.47;;;4.30;99.90;;;;;;4930401;28;20031;-83
2022/01/09 09:12:31;;;;;;;10.90;2.53;;;4.30;99.90;;;;;;4927810;28;20039;-84
2022/01/09 09:14:57;;;;;;;17.88;3.03;;;4.30;99.90;;;;;;4942054;28;20034;-83
2022/01/09 09:17:23;;;;;;;11.98;5.45;;;4.40;99.90;;;;;;4939069;28;20026;-84
2022/01/09 09:19:48;;;;;;;11.95;2.65;;;4.40;99.90;;;;;;4931778;28;20039;-83
2022/01/09 09:22:14;;;;;;;11.32;2.38;;;4.40;99.90;;;;;;4929268;28;20100;-83
2022/01/09 09:24:40;;;;;;;12.18;3.60;;;4.40;99.90;;;;;;4956269;28;20062;-83
2022/01/09 09:27:06;;;;;;;13.27;3.40;;;4.40;99.90;;;;;;4929183;28;20042;-83
2022/01/09 09:29:31;;;;;;;13.15;3.05;;;4.40;99.90;;;;;;4956364;28;20035;-83
2022/01/09 09:31:57;;;;;;;8.65;2.40;;;4.50;99.90;;;;;;4924838;28;20094;-83
2022/01/09 09:34:22;;;;;;;12.55;3.65;;;4.50;99.90;;;;;;4929613;28;20118;-84
2022/01/09 09:36:48;;;;;;;11.93;3.15;;;4.50;99.90;;;;;;4937665;28;20506;-83
2022/01/09 09:39:14;;;;;;;13.57;4.07;;;4.60;99.90;;;;;;4929924;28;20035;-83
2022/01/09 09:41:41;;;;;;;7.07;2.78;;;4.60;99.90;;;;;;4933084;28;20054;-83
2022/01/09 09:44:09;;;;;;;6.80;2.13;;;4.60;99.90;;;;;;4941369;28;20031;-84
2022/01/09 09:46:35;;;;;;;15.45;4.03;;;4.60;99.90;;;;;;4938005;28;20035;-83
2022/01/09 09:49:01;;;;;;;17.85;4.75;;;4.70;99.90;;;;;;4936481;28;20138;-84
2022/01/09 09:51:28;;;;;;;14.57;3.83;;;4.60;99.90;;;;;;4942368;28;20031;-83
2022/01/09 09:53:55;;;;;;;22.23;5.28;;;4.60;99.90;;;;;;4924522;28;20133;-84
2022/01/09 09:56:20;;;;;;;18.20;4.72;;;4.60;99.90;;;;;;4931961;28;20036;-85
2022/01/09 09:58:48;;;;;;;15.77;4.88;;;4.60;99.90;;;;;;4941988;28;20543;-84
2022/01/09 10:01:24;;;;;;;26.80;4.03;;;4.60;99.90;;;;;;4930980;28;20082;-84
2022/01/09 10:04:00;;;;;;;14.68;3.35;;;4.60;99.90;;;;;;4915592;28;20127;-84
2022/01/09 10:06:36;;;;;;;14.70;3.80;;;4.60;99.90;;;;;;4913191;28;20046;-84
2022/01/09 10:09:21;;;;;;;10.45;3.70;;;4.70;99.90;;;;;;4942538;28;20081;-84
2022/01/09 10:11:51;;;;;;;12.38;2.88;;;4.60;99.90;;;;;;4930583;28;20035;-84
2022/01/09 10:14:26;;;;;;;8.80;3.03;;;4.70;99.90;;;;;;4925947;28;20031;-84
2022/01/09 10:17:16;;;;;;;13.50;4.80;;;4.70;99.90;;;;;;4956461;28;20424;-82
2022/01/09 10:20:09;;;;;;;14.77;3.03;;;4.70;99.90;;;;;;4930514;28;20728;-84
2022/01/09 10:22:37;;;;;;;11.57;3.72;;;4.80;99.90;;;;;;4931062;28;20027;-83
2022/01/09 10:25:21;;;;;;;10.48;5.65;;;4.80;99.90;;;;;;4930337;28;20053;-84
2022/01/09 10:28:09;;;;;;;5.70;2.70;;;4.80;99.90;;;;;;4954535;28;20462;-84
2022/01/09 10:30:39;;;;;;;11.30;3.78;;;4.90;99.90;;;;;;4930656;28;20109;-84
2022/01/09 10:33:10;;;;;;;7.35;2.85;;;4.90;99.90;;;;;;4938014;28;20039;-84
2022/01/09 10:35:36;;;;;;;11.63;4.13;;;4.90;99.90;;;;;;4917446;28;20051;-83
2022/01/09 10:38:05;;;;;;;9.73;4.38;;;4.90;99.90;;;;;;4929423;28;20035;-83
2022/01/09 10:40:32;;;;;;;18.00;6.70;;;4.90;99.90;;;;;;4940900;28;20046;-83
2022/01/09 10:43:17;;;;;;;12.68;3.47;;;4.90;99.90;;;;;;4944783;28;20085;-82
2022/01/09 10:45:46;;;;;;;9.88;4.38;;;4.90;99.90;;;;;;4928301;28;20503;-83
2022/01/09 10:48:21;;;;;;;22.73;5.22;;;5.00;99.90;;;;;;4923760;28;20040;-83
2022/01/09 10:50:47;;;;;;;9.82;4.55;;;5.00;99.90;;;;;;4929959;28;20027;-84
2022/01/09 10:53:18;;;;;;;3.28;2.33;;;5.00;99.90;;;;;;4930014;28;20061;-83
2022/01/09 10:56:07;;;;;;;8.13;3.10;;;5.10;99.90;;;;;;4927668;28;20094;-83
2022/01/09 10:58:34;;;;;;;12.75;4.55;;;5.10;99.90;;;;;;4949279;28;20122;-83
2022/01/09 11:01:08;;;;;;;11.63;5.50;;;5.10;99.90;;;;;;4932823;28;20226;-83
2022/01/09 11:03:33;;;;;;;9.40;2.90;;;5.20;99.90;;;;;;4928887;28;20146;-84
2022/01/09 11:06:00;;;;;;;12.38;3.70;;;5.20;99.90;;;;;;4947557;28;20195;-83
2022/01/09 11:08:29;;;;;;;11.45;4.15;;;5.30;99.90;;;;;;4943215;28;20106;-83
2022/01/09 11:10:55;;;;;;;16.88;6.30;;;5.30;99.90;;;;;;4944178;28;20562;-83
2022/01/09 11:13:21;;;;;;;19.70;5.53;;;5.30;99.90;;;;;;4930577;28;20035;-84
2022/01/09 11:16:32;;;;;;;8.68;3.72;;;5.30;99.90;;;;;;4955791;28;20056;-84
2022/01/09 11:18:34;;;;;;;13.93;3.90;;;5.30;99.90;;;;;;4966735;28;20027;-84
2022/01/09 11:20:59;;;;;;;17.70;6.07;;;5.20;99.90;;;;;;4943198;28;20047;-83
2022/01/09 11:23:29;;;;;;;17.70;5.60;;;5.20;99.90;;;;;;4930352;28;20031;-83
2022/01/09 11:25:54;;;;;;;12.68;3.33;;;5.20;99.90;;;;;;4959700;28;20447;-83
2022/01/09 11:28:24;;;;;;;13.98;5.38;;;5.30;99.90;;;;;;4929355;28;20043;-83
2022/01/09 11:31:04;;;;;;;9.43;2.97;;;5.30;99.90;;;;;;4942732;28;20066;-84
2022/01/09 11:33:42;;;;;;;6.00;3.15;;;5.30;99.90;;;;;;4942662;28;20509;-83
2022/01/09 11:36:34;;;;;;;12.75;5.35;;;5.20;99.90;;;;;;4935043;28;20086;-83
2022/01/09 11:39:12;;;;;;;9.88;3.38;;;5.30;99.90;;;;;;4928765;28;20039;-84
2022/01/09 11:41:39;;;;;;;11.15;5.40;;;5.20;99.90;;;;;;4945771;28;20047;-83
2022/01/09 11:44:08;;;;;;;13.88;4.20;;;5.30;99.90;;;;;;4932908;28;20492;-84
2022/01/09 11:47:00;;;;;;;10.75;5.10;;;5.30;99.90;;;;;;4942336;28;20054;-83
2022/01/09 11:49:26;;;;;;;10.88;4.18;;;5.40;99.90;;;;;;4930208;28;20535;-83
2022/01/09 11:51:56;;;;;;;13.43;3.67;;;5.40;99.90;;;;;;4917120;28;20030;-83
2022/01/09 11:54:22;;;;;;;12.45;3.92;;;5.40;99.90;;;;;;4945236;28;20424;-83
2022/01/09 11:57:05;;;;;;;8.60;3.80;;;5.40;99.90;;;;;;4946966;28;20034;-83
2022/01/09 11:59:37;;;;;;;12.57;4.68;;;5.40;99.90;;;;;;4946113;28;20037;-83
2022/01/09 12:02:30;;;;;;;12.23;4.65;;;5.40;99.90;;;;;;4958114;28;20034;-83
2022/01/09 12:05:02;;;;;;;9.43;3.20;;;5.40;99.90;;;;;;4915546;28;20031;-83
2022/01/09 12:07:34;;;;;;;19.25;4.28;;;5.50;99.90;;;;;;4922500;28;20475;-83
2022/01/09 12:10:00;;;;;;;6.93;2.15;;;5.40;99.90;;;;;;4943320;28;20442;-84
2022/01/09 12:12:32;;;;;;;15.43;4.30;;;5.50;99.90;;;;;;4581428;29;10001355;-83
2022/01/09 12:15:02;;;;;;;16.75;4.65;;;5.50;99.90;;;;;;4935943;28;20122;-82
2022/01/09 12:17:37;;;;;;;8.23;2.65;;;5.50;99.90;;;;;;4925914;28;20039;-83
2022/01/09 12:20:13;;;;;;;5.85;2.33;;;5.50;99.90;;;;;;4954624;28;20038;-83
2022/01/09 12:25:10;;;;;;;11.27;3.75;;;5.50;99.90;;;;;;4953837;28;20059;-83
2022/01/09 12:27:35;;;;;;;11.52;4.03;;;5.60;99.90;;;;;;4954016;28;20043;-83
2022/01/09 12:30:07;;;;;;;14.82;4.28;;;5.60;99.90;;;;;;4957247;28;20085;-84
2022/01/09 12:32:40;;;;;;;12.18;5.57;;;5.60;99.90;;;;;;4945375;28;20069;-83
2022/01/09 12:35:19;;;;;;;14.20;4.53;;;5.60;99.90;;;;;;4936557;28;20070;-84
2022/01/09 12:37:49;;;;;;;10.60;3.20;;;5.60;99.90;;;;;;4926337;28;20041;-83
2022/01/09 12:40:16;;;;;;;11.70;5.38;;;5.60;99.90;;;;;;4928685;28;20122;-84
2022/01/09 12:42:46;;;;;;;10.45;4.18;;;5.60;99.90;;;;;;4928661;28;20503;-84
2022/01/09 12:45:19;;;;;;;7.97;3.58;;;5.50;99.90;;;;;;4929119;28;20110;-84
2022/01/09 12:47:45;;;;;;;6.95;3.40;;;5.40;99.90;;;;;;4940821;28;20122;-84
2022/01/09 12:50:11;;;;;;;19.80;5.18;;;5.50;99.90;;;;;;4939508;28;20118;-83
2022/01/09 12:52:37;;;;;;;8.88;3.70;;;5.40;99.90;;;;;;4940396;28;20063;-83
2022/01/09 12:55:07;;;;;;;7.57;3.22;;;5.50;99.90;;;;;;4941546;28;20122;-83